Airfield :
LOGIN :

Register | Disclaimer

   EN    FR    IT 

 










Legend :    VFR   Marginal VFR   IFR   Intensive IFR   Very Intensive IFR
Visi :
Ceiling :
>= 8 km
>= 3000ft
5 to 8 km
1000 to 3000 ft
1500m to 5 km
500 to 1000 ft
800 to 1500m
200 to 500 ft
< 800m
< 200 ft
Symbols :   Thunderstorms  Fog  Heavy snow  Heavy precipitations  Wind > 20 kt
SIGMETs :     Misc.  Thunderstorms  Icing  Turbulence  Mountain Waves  Volcanic Ashes







- Airport Elevation : 147 ft
- IATA code : DUS


EDDL - Düsseldorf Int.

CURRENT METAR :
  • 261150Z 30008KT 250V340 9000 NSC 28/19 Q1024 NOSIG

EXPIRED METARs :
  • 261120Z 31007KT 260V360 9000 NSC 27/19 Q1024 NOSIG
  • 261050Z 32008KT 270V350 9000 NSC 27/18 Q1024 NOSIG
  • 261020Z 32008KT 290V360 9000 NSC 27/19 Q1024 NOSIG
  • 260950Z 31006KT 190V340 8000 NSC 27/19 Q1024 NOSIG
  • 260920Z 29005KT 220V330 8000 NSC 27/19 Q1024 NOSIG

TAF TAF EDDL
Valid from the 26 at 12:00 until the 27 at 18:00 UTC


261100Z 2612/2718 29005KT CAVOK
BECMG 2612/2615 35010KT
BECMG 2622/2701 36005KT
BECMG 2710/2713 36010KT
No reported NOTAMs for that airfield.



MET'MAP, your aeronautical weather chart ! - Copyright ORBIFLY December 2007 - Disclaimer

ORBIFLY MET'MAP TEAM :

Programming & Development : Alexandra Zaïnal
Concept & Development : Baudouin d'Aumeries
Co-Development & Prog : Marc-Olivier Méhu
Technical & hardware support : Manuel Goepfert

Contact : metmap@orbifly.com




SOURCES & CREDITS :

   NOAA